bureau de piste

METAR LFMD 200200Z AUTO 36006KT 320V030 CAVOK 05/03 Q1017

TAF LFMD 191400Z 1915/2015 16010KT CAVOK BECMG 1917/1918 36010KT PROB40 1922/2009 BKN009 FM200900 09010KT 9999 BKN011

INFORMATION ADDS - 0209 UTC 20 November 2017

Plus d’information sur les terrains : LFMD et VALBERG

Les commentaires sont clos.